Terminal Aerodrome Forecast
Issued by NWS Portland, ME

Current Version | Previous Version | Text Only | Print | Product List | Glossary On
Versions: 1 2 3 4 5 6 7 8 9 10 11 12 13 14 15 16 17
000 FTUS41 KGYX 041120 TAFPWM TAF KPWM 041120Z 0412/0512 04010KT P6SM SKC FM041500 09011KT P6SM SKC FM042000 14008KT P6SM SKC FM050000 VRB03KT P6SM SKC=

USA.gov is the U.S. government's official web portal to all federal, state and local government web resources and services.